createdAt,value
2018-11-22T00:00:28.671Z,102321.22
2018-11-22T00:03:14.891Z,102313.08
2018-11-22T00:05:41.611Z,102317.07
2018-11-22T00:08:08.324Z,102317.16
2018-11-22T00:10:35.064Z,102315.94
2018-11-22T00:13:01.723Z,102314.91
2018-11-22T00:15:28.341Z,102314.33
2018-11-22T00:17:55.784Z,102312.23
2018-11-22T00:20:22.460Z,102313.45
2018-11-22T00:22:49.094Z,102302.93
2018-11-22T00:25:16.078Z,102308.14
2018-11-22T00:27:42.708Z,102309.66
2018-11-22T00:30:28.969Z,102303.58
2018-11-22T00:32:56.352Z,102306.34
2018-11-22T00:35:23.038Z,102305.86
2018-11-22T00:37:50.109Z,102301.98
2018-11-22T00:40:18.378Z,102309.09
2018-11-22T00:42:45.729Z,102297.69
2018-11-22T00:45:13.795Z,102299.89
2018-11-22T00:47:40.626Z,102306.05
2018-11-22T00:50:09.236Z,102303.88
2018-11-22T00:52:36.008Z,102296.81
2018-11-22T00:55:02.668Z,102307.00
2018-11-22T00:57:29.401Z,102305.86
2018-11-22T00:59:56.056Z,102306.92
2018-11-22T01:02:22.697Z,102304.91
2018-11-22T01:04:49.382Z,102306.80
2018-11-22T01:07:15.979Z,102306.05
2018-11-22T01:09:42.660Z,102303.01
2018-11-22T01:12:09.298Z,102308.90
2018-11-22T01:14:35.930Z,102305.25
2018-11-22T01:17:02.552Z,102304.91
2018-11-22T01:19:29.254Z,102310.31
2018-11-22T01:21:55.891Z,102309.85
2018-11-22T01:24:22.568Z,102305.28
2018-11-22T01:26:49.224Z,102308.70
2018-11-22T01:29:16.244Z,102314.60
2018-11-22T01:31:42.894Z,102309.09
2018-11-22T01:34:09.599Z,102303.84
2018-11-22T01:36:36.294Z,102309.92
2018-11-22T01:39:04.904Z,102304.11
2018-11-22T01:41:31.570Z,102301.64
2018-11-22T01:43:58.191Z,102298.71
2018-11-22T01:46:24.827Z,102306.31
2018-11-22T01:48:51.461Z,102308.22
2018-11-22T01:51:18.133Z,102306.23
2018-11-22T01:53:44.783Z,102303.58
2018-11-22T01:56:11.504Z,102305.75
2018-11-22T01:58:38.127Z,102304.30
2018-11-22T02:01:04.883Z,102306.12
2018-11-22T02:03:31.517Z,102307.46
2018-11-22T02:05:58.209Z,102301.48
2018-11-22T02:08:24.762Z,102309.85
2018-11-22T02:10:51.419Z,102305.06
2018-11-22T02:13:18.049Z,102298.72
2018-11-22T02:15:44.706Z,102301.19
2018-11-22T02:18:11.428Z,102297.34
2018-11-22T02:20:38.366Z,102306.89
2018-11-22T02:23:05.039Z,102303.95
2018-11-22T02:25:31.751Z,102300.54
2018-11-22T02:27:58.388Z,102300.16
2018-11-22T02:30:26.355Z,102301.78
2018-11-22T02:32:54.435Z,102306.51
2018-11-22T02:35:21.385Z,102304.23
2018-11-22T02:37:48.112Z,102303.58
2018-11-22T02:40:16.526Z,102298.83
2018-11-22T02:42:43.868Z,102303.01
2018-11-22T02:45:12.074Z,102294.08
2018-11-22T02:47:39.206Z,102293.69
2018-11-22T02:50:07.905Z,102301.30
2018-11-22T02:52:34.562Z,102296.73
2018-11-22T02:55:01.171Z,102298.83
2018-11-22T02:57:27.818Z,102296.16
2018-11-22T02:59:54.473Z,102298.06
2018-11-22T03:02:21.187Z,102300.54
2018-11-22T03:04:47.877Z,102299.02
2018-11-22T03:07:14.553Z,102303.69
2018-11-22T03:09:41.135Z,102308.55
2018-11-22T03:12:07.798Z,102301.33
2018-11-22T03:14:34.458Z,102301.70
2018-11-22T03:17:01.079Z,102307.11
2018-11-22T03:19:27.705Z,102301.25
2018-11-22T03:21:54.592Z,102299.42
2018-11-22T03:24:21.295Z,102299.42
2018-11-22T03:26:47.935Z,102300.75
2018-11-22T03:29:14.615Z,102311.97
2018-11-22T03:31:41.216Z,102304.28
2018-11-22T03:34:08.256Z,102305.70
2018-11-22T03:36:34.908Z,102305.05
2018-11-22T03:39:01.554Z,102305.51
2018-11-22T03:41:28.179Z,102308.25
2018-11-22T03:43:54.825Z,102305.78
2018-11-22T03:46:21.487Z,102302.36
2018-11-22T03:48:48.180Z,102302.17
2018-11-22T03:51:14.870Z,102297.72
2018-11-22T03:53:41.505Z,102307.02
2018-11-22T03:56:08.420Z,102303.22
2018-11-22T03:58:35.397Z,102299.05
2018-11-22T04:01:02.021Z,102305.13
2018-11-22T04:03:28.658Z,102309.23
2018-11-22T04:05:55.333Z,102300.19
2018-11-22T04:08:21.994Z,102296.28
2018-11-22T04:10:48.628Z,102296.20
2018-11-22T04:13:15.236Z,102294.59
2018-11-22T04:15:41.929Z,102293.27
2018-11-22T04:18:08.546Z,102289.27
2018-11-22T04:20:35.263Z,102288.41
2018-11-22T04:23:01.920Z,102288.41
2018-11-22T04:25:28.683Z,102290.23
2018-11-22T04:27:55.549Z,102294.22
2018-11-22T04:30:23.722Z,102284.03
2018-11-22T04:32:50.751Z,102290.87
2018-11-22T04:35:18.314Z,102291.06
2018-11-22T04:37:45.016Z,102291.14
2018-11-22T04:40:13.435Z,102294.67
2018-11-22T04:42:40.016Z,102285.71
2018-11-22T04:45:07.025Z,102288.67
2018-11-22T04:47:33.796Z,102290.95
2018-11-22T04:50:00.474Z,102292.77
2018-11-22T04:52:27.144Z,102286.12
2018-11-22T04:54:53.786Z,102279.85
2018-11-22T04:57:20.468Z,102282.48
2018-11-22T04:59:47.139Z,102271.30
2018-11-22T05:02:13.760Z,102275.30
2018-11-22T05:04:40.374Z,102273.77
2018-11-22T05:07:07.020Z,102269.21
2018-11-22T05:09:33.635Z,102269.78
2018-11-22T05:12:00.312Z,102268.34
2018-11-22T05:14:26.943Z,102261.69
2018-11-22T05:16:54.386Z,102263.63
2018-11-22T05:19:20.992Z,102257.70
2018-11-22T05:21:47.605Z,102262.94
2018-11-22T05:24:14.259Z,102255.15
2018-11-22T05:26:40.925Z,102258.19
2018-11-22T05:29:12.403Z,102261.77
2018-11-22T05:31:34.240Z,102253.90
2018-11-22T05:34:00.948Z,102257.81
2018-11-22T05:36:27.588Z,102254.77
2018-11-22T05:38:54.240Z,102259.55
2018-11-22T05:41:20.915Z,102258.38
2018-11-22T05:43:47.583Z,102261.61
2018-11-22T05:46:14.192Z,102261.23
2018-11-22T05:48:40.858Z,102260.09
2018-11-22T05:51:07.461Z,102259.33
2018-11-22T05:53:34.091Z,102261.23
2018-11-22T05:56:00.677Z,102261.83
2018-11-22T05:58:27.305Z,102259.55
2018-11-22T06:00:54.018Z,102263.84
2018-11-22T06:03:20.659Z,102270.76
2018-11-22T06:05:47.256Z,102267.45
2018-11-22T06:08:13.917Z,102277.14
2018-11-22T06:10:40.588Z,102272.50
2018-11-22T06:13:07.343Z,102273.91
2018-11-22T06:15:33.990Z,102279.14
2018-11-22T06:18:01.184Z,102279.30
2018-11-22T06:20:29.024Z,102280.25
2018-11-22T06:22:56.242Z,102283.87
2018-11-22T06:25:22.940Z,102277.59
2018-11-22T06:27:50.141Z,102275.48
2018-11-22T06:30:37.190Z,102279.09
2018-11-22T06:33:03.957Z,102271.98
2018-11-22T06:35:31.514Z,102277.38
2018-11-22T06:37:58.222Z,102275.97
2018-11-22T06:40:24.856Z,102272.33
2018-11-22T06:42:52.454Z,102279.28
2018-11-22T06:45:20.539Z,102277.66
2018-11-22T06:47:47.248Z,102277.00
2018-11-22T06:50:14.863Z,102277.73
2018-11-22T06:52:41.503Z,102275.67
2018-11-22T06:55:10.800Z,102281.83
2018-11-22T06:57:37.469Z,102283.27
2018-11-22T07:00:07.113Z,102283.05
2018-11-22T07:02:33.737Z,102281.95
2018-11-22T07:05:00.370Z,102276.63
2018-11-22T07:07:26.982Z,102286.77
2018-11-22T07:09:53.922Z,102287.84
2018-11-22T07:12:20.573Z,102291.44
2018-11-22T07:14:48.421Z,102290.77
2018-11-22T07:17:15.115Z,102294.27
2018-11-22T07:19:41.731Z,102293.50
2018-11-22T07:22:08.399Z,102287.42
2018-11-22T07:24:35.026Z,102286.47
2018-11-22T07:27:01.722Z,102284.19
2018-11-22T07:29:28.381Z,102284.98
2018-11-22T07:31:55.099Z,102284.03
2018-11-22T07:34:21.763Z,102280.39
2018-11-22T07:36:48.464Z,102279.44
2018-11-22T07:39:15.163Z,102278.80
2018-11-22T07:41:41.801Z,102281.91
2018-11-22T07:44:08.445Z,102278.11
2018-11-22T07:46:35.066Z,102274.12
2018-11-22T07:49:01.687Z,102277.54
2018-11-22T07:51:28.383Z,102285.06
2018-11-22T07:53:55.005Z,102287.04
2018-11-22T07:56:21.676Z,102280.01
2018-11-22T07:58:48.409Z,102284.19
2018-11-22T08:01:15.065Z,102291.03
2018-11-22T08:03:41.796Z,102289.89
2018-11-22T08:06:08.437Z,102289.81
2018-11-22T08:08:35.057Z,102291.41
2018-11-22T08:11:01.731Z,102294.04
2018-11-22T08:13:28.353Z,102293.39
2018-11-22T08:15:54.990Z,102296.81
2018-11-22T08:18:21.621Z,102292.06
2018-11-22T08:20:48.255Z,102290.31
2018-11-22T08:23:14.911Z,102290.62
2018-11-22T08:25:41.526Z,102294.94
2018-11-22T08:28:08.216Z,102302.25
2018-11-22T08:30:34.899Z,102292.66
2018-11-22T08:33:01.564Z,102298.86
2018-11-22T08:35:28.253Z,102299.97
2018-11-22T08:37:54.896Z,102298.63
2018-11-22T08:40:23.027Z,102301.47
2018-11-22T08:42:55.118Z,102302.88
2018-11-22T08:45:17.843Z,102310.12
2018-11-22T08:47:44.930Z,102304.08
2018-11-22T08:50:31.280Z,102301.79
2018-11-22T08:53:00.228Z,102301.97
2018-11-22T08:55:46.483Z,102302.42
2018-11-22T08:58:13.142Z,102308.32
2018-11-22T09:00:40.807Z,102307.56
2018-11-22T09:03:07.673Z,102306.12
2018-11-22T09:05:35.708Z,102314.53
2018-11-22T09:08:02.683Z,102299.39
2018-11-22T09:10:29.714Z,102300.22
2018-11-22T09:12:57.209Z,102309.54
2018-11-22T09:15:31.220Z,102308.86
2018-11-22T09:17:51.732Z,102322.47
2018-11-22T09:20:19.876Z,102312.70
2018-11-22T09:22:46.532Z,102306.80
2018-11-22T09:25:14.004Z,102310.30
2018-11-22T09:27:41.211Z,102316.27
2018-11-22T09:30:13.409Z,102314.86
2018-11-22T09:32:40.359Z,102313.97
2018-11-22T09:35:07.373Z,102321.27
2018-11-22T09:37:34.058Z,102322.56
2018-11-22T09:40:00.672Z,102317.73
2018-11-22T09:42:27.761Z,102323.19
2018-11-22T09:44:54.333Z,102317.30
2018-11-22T09:47:21.137Z,102322.61
2018-11-22T09:49:47.855Z,102317.79
2018-11-22T09:52:14.509Z,102321.42
2018-11-22T09:54:41.197Z,102326.75
2018-11-22T09:57:07.791Z,102319.45
2018-11-22T09:59:34.489Z,102316.20
2018-11-22T10:02:01.158Z,102313.03
2018-11-22T10:04:27.822Z,102310.88
2018-11-22T10:06:54.458Z,102305.92
2018-11-22T10:09:21.233Z,102306.33
2018-11-22T10:11:47.748Z,102311.57
2018-11-22T10:14:14.491Z,102305.81
2018-11-22T10:16:41.134Z,102305.88
2018-11-22T10:19:07.769Z,102302.92
2018-11-22T10:21:34.474Z,102305.93
2018-11-22T10:24:01.114Z,102303.19
2018-11-22T10:26:27.760Z,102303.30
2018-11-22T10:28:54.419Z,102308.05
2018-11-22T10:31:21.063Z,102307.84
2018-11-22T10:33:47.753Z,102308.05
2018-11-22T10:36:14.412Z,102308.94
2018-11-22T10:38:41.032Z,102305.90
2018-11-22T10:41:07.713Z,102304.31
2018-11-22T10:43:34.388Z,102303.12
2018-11-22T10:46:01.041Z,102298.44
2018-11-22T10:48:27.667Z,102297.16
2018-11-22T10:50:54.296Z,102289.07
2018-11-22T10:53:20.892Z,102289.80
2018-11-22T10:55:47.573Z,102289.16
2018-11-22T10:58:14.201Z,102287.77
2018-11-22T11:01:00.490Z,102292.00
2018-11-22T11:03:46.699Z,102284.36
2018-11-22T11:06:33.015Z,102282.45
2018-11-22T11:09:00.247Z,102284.03
2018-11-22T11:11:27.187Z,102281.89
2018-11-22T11:13:54.008Z,102277.11
2018-11-22T11:16:20.675Z,102279.41
2018-11-22T11:18:47.350Z,102274.94
2018-11-22T11:21:14.072Z,102270.95
2018-11-22T11:23:40.722Z,102269.70
2018-11-22T11:26:07.417Z,102268.00
2018-11-22T11:28:34.092Z,102266.61
2018-11-22T11:31:00.756Z,102261.61
2018-11-22T11:33:27.549Z,102262.95
2018-11-22T11:35:54.179Z,102264.20
2018-11-22T11:38:20.885Z,102260.53
2018-11-22T11:40:47.502Z,102262.73
2018-11-22T11:43:14.136Z,102259.31
2018-11-22T11:46:00.398Z,102259.91
2018-11-22T11:48:27.065Z,102262.81
2018-11-22T11:50:53.715Z,102259.10
2018-11-22T11:53:25.127Z,102252.91
2018-11-22T11:55:47.052Z,102257.86
2018-11-22T11:58:13.767Z,102250.03
2018-11-22T12:00:41.873Z,102254.78
2018-11-22T12:03:08.564Z,102249.89
2018-11-22T12:05:35.236Z,102242.09
2018-11-22T12:08:01.959Z,102242.97
2018-11-22T12:10:28.640Z,102241.89
2018-11-22T12:12:55.282Z,102241.77
2018-11-22T12:15:22.972Z,102237.52
2018-11-22T12:17:49.653Z,102239.38
2018-11-22T12:20:16.872Z,102232.66
2018-11-22T12:22:44.810Z,102231.38
2018-11-22T12:25:12.836Z,102229.52
2018-11-22T12:27:39.985Z,102226.48
2018-11-22T12:30:11.037Z,102224.70
2018-11-22T12:32:57.290Z,102220.13
2018-11-22T12:35:43.561Z,102220.13
2018-11-22T12:38:29.809Z,102217.14
2018-11-22T12:40:56.480Z,102215.51
2018-11-22T12:43:23.499Z,102216.23
2018-11-22T12:45:50.133Z,102212.00
2018-11-22T12:48:16.791Z,102203.63
2018-11-22T12:50:43.491Z,102197.27
2018-11-22T12:53:10.125Z,102203.94
2018-11-22T12:55:36.851Z,102205.84
2018-11-22T12:58:03.469Z,102194.98
2018-11-22T13:00:30.107Z,102202.39
2018-11-22T13:02:56.734Z,102201.84
2018-11-22T13:05:23.391Z,102201.38
2018-11-22T13:07:50.039Z,102195.67
2018-11-22T13:10:17.785Z,102198.45
2018-11-22T13:12:45.671Z,102193.76
2018-11-22T13:15:16.695Z,102196.42
2018-11-22T13:17:43.370Z,102197.50
2018-11-22T13:20:12.403Z,102196.92
2018-11-22T13:22:38.100Z,102192.02
2018-11-22T13:25:06.413Z,102193.72
2018-11-22T13:27:33.111Z,102189.98
2018-11-22T13:29:59.720Z,102190.81
2018-11-22T13:32:26.357Z,102191.94
2018-11-22T13:34:53.025Z,102190.23
2018-11-22T13:37:19.763Z,102190.23
2018-11-22T13:39:46.461Z,102191.89
2018-11-22T13:42:13.173Z,102189.34
2018-11-22T13:44:39.816Z,102190.06
2018-11-22T13:47:06.450Z,102183.90
2018-11-22T13:49:33.040Z,102192.89
2018-11-22T13:51:59.674Z,102187.40
2018-11-22T13:54:26.330Z,102192.80
2018-11-22T13:56:53.086Z,102189.34
2018-11-22T13:59:19.734Z,102191.30
2018-11-22T14:01:46.344Z,102193.13
2018-11-22T14:04:13.060Z,102178.05
2018-11-22T14:06:39.694Z,102187.58
2018-11-22T14:09:07.916Z,102181.17
2018-11-22T14:11:34.625Z,102180.83
2018-11-22T14:14:01.330Z,102182.63
2018-11-22T14:16:28.045Z,102185.41
2018-11-22T14:18:54.755Z,102181.73
2018-11-22T14:21:21.397Z,102180.12
2018-11-22T14:23:48.118Z,102184.11
2018-11-22T14:26:14.698Z,102185.30
2018-11-22T14:28:41.419Z,102175.48
2018-11-22T14:31:08.142Z,102176.45
2018-11-22T14:33:34.902Z,102177.69
2018-11-22T14:36:01.621Z,102176.36
2018-11-22T14:38:28.313Z,102168.08
2018-11-22T14:40:54.940Z,102166.05
2018-11-22T14:43:21.674Z,102171.49
2018-11-22T14:45:48.302Z,102177.77
2018-11-22T14:48:14.952Z,102173.32
2018-11-22T14:51:05.705Z,102169.16
2018-11-22T14:53:32.385Z,102171.94
2018-11-22T14:56:18.655Z,102168.66
2018-11-22T14:58:45.333Z,102173.03
2018-11-22T15:01:12.009Z,102169.09
2018-11-22T15:03:38.727Z,102165.63
2018-11-22T15:06:05.384Z,102166.28
2018-11-22T15:08:32.076Z,102160.95
2018-11-22T15:10:58.729Z,102162.95
2018-11-22T15:13:25.383Z,102165.16
2018-11-22T15:15:52.160Z,102167.82
2018-11-22T15:18:18.797Z,102166.23
2018-11-22T15:20:45.432Z,102167.94
2018-11-22T15:23:12.059Z,102168.28
2018-11-22T15:25:38.744Z,102171.94
2018-11-22T15:28:05.406Z,102174.10
2018-11-22T15:30:32.061Z,102176.83
2018-11-22T15:32:59.076Z,102173.23
2018-11-22T15:35:27.159Z,102175.15
2018-11-22T15:37:54.136Z,102181.48
2018-11-22T15:40:22.052Z,102174.62
2018-11-22T15:42:50.183Z,102176.34
2018-11-22T15:45:18.150Z,102168.17
2018-11-22T15:47:45.082Z,102169.50
2018-11-22T15:50:13.114Z,102175.58
2018-11-22T15:52:39.982Z,102183.38
2018-11-22T15:55:20.780Z,102182.30
2018-11-22T15:57:42.266Z,102179.78
2018-11-22T16:00:29.988Z,102186.17
2018-11-22T16:02:57.163Z,102190.55
2018-11-22T16:05:24.709Z,102187.69
2018-11-22T16:07:51.359Z,102193.77
2018-11-22T16:10:26.347Z,102199.03
2018-11-22T16:12:47.732Z,102191.70
2018-11-22T16:15:54.178Z,102199.03
2018-11-22T16:18:20.889Z,102203.98
2018-11-22T16:20:47.712Z,102200.38
2018-11-22T16:26:00.803Z,102195.26
2018-11-22T16:28:27.471Z,102195.44
2018-11-22T16:30:54.197Z,102205.83
2018-11-22T16:33:20.861Z,102194.80
2018-11-22T16:35:47.562Z,102193.93
2018-11-22T16:38:14.170Z,102196.97
2018-11-22T16:40:40.779Z,102197.64
2018-11-22T16:43:07.384Z,102195.03
2018-11-22T16:45:35.251Z,102191.88
2018-11-22T16:48:03.623Z,102188.84
2018-11-22T16:50:31.287Z,102195.61
2018-11-22T16:52:57.898Z,102193.91
2018-11-22T16:55:25.316Z,102194.11
2018-11-22T16:57:52.831Z,102195.92
2018-11-22T17:00:40.119Z,102199.48
2018-11-22T17:03:08.590Z,102192.22
2018-11-22T17:05:35.693Z,102194.88
2018-11-22T17:08:03.074Z,102195.69
2018-11-22T17:10:30.570Z,102199.87
2018-11-22T17:12:58.406Z,102193.36
2018-11-22T17:15:26.502Z,102188.03
2018-11-22T17:17:53.795Z,102191.01
2018-11-22T17:20:21.280Z,102186.13
2018-11-22T17:22:49.336Z,102185.55
2018-11-22T17:25:17.218Z,102186.13
2018-11-22T17:27:45.717Z,102184.80
2018-11-22T17:30:33.448Z,102188.33
2018-11-22T17:33:00.656Z,102190.23
2018-11-22T17:35:28.662Z,102184.69
2018-11-22T17:37:59.464Z,102186.39
2018-11-22T17:40:36.892Z,102180.12
2018-11-22T17:43:03.807Z,102183.16
2018-11-22T17:45:32.235Z,102185.23
2018-11-22T17:47:58.907Z,102182.78
2018-11-22T17:50:46.364Z,102187.78
2018-11-22T17:53:13.344Z,102183.65
2018-11-22T17:55:40.329Z,102180.34
2018-11-22T17:58:08.723Z,102178.26
2018-11-22T18:00:36.912Z,102179.97
2018-11-22T18:03:04.813Z,102179.48
2018-11-22T18:05:32.656Z,102187.34
2018-11-22T18:08:00.227Z,102186.57
2018-11-22T18:10:32.164Z,102194.09
2018-11-22T18:12:59.323Z,102191.12
2018-11-22T18:15:26.558Z,102198.81
2018-11-22T18:17:54.054Z,102194.36
2018-11-22T18:20:22.742Z,102195.63
2018-11-22T18:22:51.641Z,102193.80
2018-11-22T18:25:19.683Z,102192.70
2018-11-22T18:27:46.350Z,102193.53
2018-11-22T18:30:33.991Z,102194.09
2018-11-22T18:33:02.067Z,102193.16
2018-11-22T18:35:30.633Z,102194.75
2018-11-22T18:37:57.156Z,102198.67
2018-11-22T18:40:25.153Z,102201.56
2018-11-22T18:42:53.106Z,102197.05
2018-11-22T18:45:39.378Z,102198.72
2018-11-22T18:48:07.243Z,102201.03
2018-11-22T18:50:34.559Z,102201.83
2018-11-22T18:53:01.227Z,102210.11
2018-11-22T18:55:27.854Z,102202.52
2018-11-22T18:57:54.469Z,102203.08
2018-11-22T19:00:41.229Z,102194.23
2018-11-22T19:03:09.450Z,102203.77
2018-11-22T19:05:36.130Z,102196.09
2018-11-22T19:08:02.744Z,102195.78
2018-11-22T19:10:48.937Z,102203.20
2018-11-22T19:13:15.622Z,102202.94
2018-11-22T19:16:01.831Z,102199.48
2018-11-22T19:18:28.446Z,102200.62
2018-11-22T19:20:55.047Z,102194.58
2018-11-22T19:23:21.666Z,102188.27
2018-11-22T19:25:48.262Z,102192.45
2018-11-22T19:28:14.863Z,102197.65
2018-11-22T19:30:42.885Z,102191.83
2018-11-22T19:33:11.033Z,102191.61
2018-11-22T19:35:57.241Z,102194.09
2018-11-22T19:38:23.870Z,102197.80
2018-11-22T19:40:50.407Z,102204.91
2018-11-22T19:43:17.015Z,102198.06
2018-11-22T19:45:45.206Z,102198.72
2018-11-22T19:48:11.815Z,102200.13
2018-11-22T19:50:38.399Z,102200.61
2018-11-22T19:53:06.673Z,102207.64
2018-11-22T19:55:41.374Z,102212.66
2018-11-22T19:58:09.366Z,102202.21
2018-11-22T20:00:36.043Z,102202.48
2018-11-22T20:03:03.796Z,102200.88
2018-11-22T20:05:31.639Z,102205.79
2018-11-22T20:07:59.620Z,102204.57
2018-11-22T20:10:27.789Z,102200.77
2018-11-22T20:12:54.375Z,102199.74
2018-11-22T20:15:20.973Z,102202.56
2018-11-22T20:17:48.157Z,102199.94
2018-11-22T20:20:15.767Z,102198.19
2018-11-22T20:22:42.414Z,102204.84
2018-11-22T20:25:09.579Z,102203.47
2018-11-22T20:27:36.510Z,102194.84
2018-11-22T20:30:05.819Z,102201.61
2018-11-22T20:32:38.698Z,102203.69
2018-11-22T20:34:59.038Z,102208.06
2018-11-22T20:37:25.620Z,102203.63
2018-11-22T20:39:52.254Z,102206.17
2018-11-22T20:42:18.846Z,102200.16
2018-11-22T20:44:45.460Z,102202.90
2018-11-22T20:47:12.046Z,102195.22
2018-11-22T20:49:38.680Z,102200.36
2018-11-22T20:52:05.272Z,102190.28
2018-11-22T20:54:31.862Z,102192.00
2018-11-22T20:56:58.454Z,102192.48
2018-11-22T20:59:25.081Z,102190.89
2018-11-22T21:01:51.871Z,102192.11
2018-11-22T21:04:18.301Z,102193.78
2018-11-22T21:06:44.891Z,102190.39
2018-11-22T21:09:11.490Z,102187.55
2018-11-22T21:11:43.384Z,102185.98
2018-11-22T21:14:05.951Z,102181.62
2018-11-22T21:16:32.557Z,102183.06
2018-11-22T21:18:59.136Z,102189.33
2018-11-22T21:21:25.752Z,102177.25
2018-11-22T21:23:52.355Z,102187.81
2018-11-22T21:26:18.959Z,102188.31
2018-11-22T21:28:45.546Z,102187.17
2018-11-22T21:31:12.163Z,102183.48
2018-11-22T21:33:38.750Z,102182.69
2018-11-22T21:36:05.367Z,102182.04
2018-11-22T21:38:31.943Z,102180.52
2018-11-22T21:40:58.543Z,102188.50
2018-11-22T21:43:25.132Z,102183.06
2018-11-22T21:45:51.730Z,102182.16
2018-11-22T21:48:18.335Z,102184.24
2018-11-22T21:50:44.947Z,102184.70
2018-11-22T21:53:11.547Z,102189.64
2018-11-22T21:55:38.194Z,102189.95
2018-11-22T21:58:04.890Z,102185.57
2018-11-22T22:00:34.281Z,102181.28
2018-11-22T22:03:02.430Z,102180.86
2018-11-22T22:05:29.012Z,102178.58
2018-11-22T22:07:55.624Z,102178.00
2018-11-22T22:10:22.218Z,102175.65
2018-11-22T22:12:48.831Z,102178.87
2018-11-22T22:15:16.852Z,102175.15
2018-11-22T22:17:44.226Z,102172.87
2018-11-22T22:20:13.099Z,102178.87
2018-11-22T22:22:40.279Z,102178.20
2018-11-22T22:25:08.516Z,102178.42
2018-11-22T22:27:35.398Z,102176.98
2018-11-22T22:30:01.995Z,102177.97
2018-11-22T22:32:28.605Z,102181.47
2018-11-22T22:34:55.194Z,102179.56
2018-11-22T22:37:21.816Z,102183.75
2018-11-22T22:39:48.415Z,102172.87
2018-11-22T22:42:15.014Z,102175.91
2018-11-22T22:44:41.606Z,102177.32
2018-11-22T22:47:08.210Z,102180.54
2018-11-22T22:49:34.823Z,102175.68
2018-11-22T22:52:01.432Z,102178.38
2018-11-22T22:54:28.054Z,102174.59
2018-11-22T22:56:54.652Z,102172.73
2018-11-22T22:59:21.250Z,102179.08
2018-11-22T23:01:47.866Z,102175.38
2018-11-22T23:04:14.464Z,102174.70
2018-11-22T23:06:41.071Z,102170.59
2018-11-22T23:09:09.274Z,102168.24
2018-11-22T23:11:35.907Z,102168.73
2018-11-22T23:14:02.489Z,102180.28
2018-11-22T23:16:29.140Z,102172.80
2018-11-22T23:18:55.740Z,102169.69
2018-11-22T23:21:22.338Z,102173.19
2018-11-22T23:23:48.918Z,102177.55
2018-11-22T23:26:16.222Z,102176.30
2018-11-22T23:28:43.964Z,102179.72
2018-11-22T23:31:11.717Z,102179.06
2018-11-22T23:33:38.539Z,102182.00
2018-11-22T23:36:05.135Z,102187.12
2018-11-22T23:38:33.148Z,102178.95
2018-11-22T23:41:01.026Z,102182.87
2018-11-22T23:43:28.809Z,102177.25
2018-11-22T23:45:55.366Z,102179.98
2018-11-22T23:48:21.965Z,102179.60
2018-11-22T23:50:48.967Z,102178.50
2018-11-22T23:53:15.552Z,102173.44
2018-11-22T23:55:42.173Z,102168.58
2018-11-22T23:58:08.776Z,102170.89
